sensor_id;sensor_type;location;lat;lon;timestamp;temperature;humidity
65598;SHT31;52267;51.984;20.956;2024-01-10T00:00:18;-9.00;74.73
65598;SHT31;52267;51.984;20.956;2024-01-10T00:03:05;-8.97;74.80
65598;SHT31;52267;51.984;20.956;2024-01-10T00:05:32;-8.96;74.80
65598;SHT31;52267;51.984;20.956;2024-01-10T00:07:59;-8.96;74.69
65598;SHT31;52267;51.984;20.956;2024-01-10T00:10:26;-8.93;74.59
65598;SHT31;52267;51.984;20.956;2024-01-10T00:12:53;-8.87;74.49
65598;SHT31;52267;51.984;20.956;2024-01-10T00:15:20;-8.81;74.48
65598;SHT31;52267;51.984;20.956;2024-01-10T00:17:47;-8.77;74.49
65598;SHT31;52267;51.984;20.956;2024-01-10T00:20:14;-8.81;74.58
65598;SHT31;52267;51.984;20.956;2024-01-10T00:22:41;-8.88;74.71
65598;SHT31;52267;51.984;20.956;2024-01-10T00:25:08;-8.88;74.81
65598;SHT31;52267;51.984;20.956;2024-01-10T00:27:35;-8.89;74.81
65598;SHT31;52267;51.984;20.956;2024-01-10T00:30:02;-8.87;74.80
65598;SHT31;52267;51.984;20.956;2024-01-10T00:32:31;-8.89;74.72
65598;SHT31;52267;51.984;20.956;2024-01-10T00:34:58;-8.89;74.70
65598;SHT31;52267;51.984;20.956;2024-01-10T00:37:26;-8.89;74.63
65598;SHT31;52267;51.984;20.956;2024-01-10T00:39:53;-8.85;74.57
65598;SHT31;52267;51.984;20.956;2024-01-10T00:42:20;-8.81;74.53
65598;SHT31;52267;51.984;20.956;2024-01-10T00:44:47;-8.77;74.41
65598;SHT31;52267;51.984;20.956;2024-01-10T00:47:14;-8.75;74.30
65598;SHT31;52267;51.984;20.956;2024-01-10T00:49:43;-8.71;74.26
65598;SHT31;52267;51.984;20.956;2024-01-10T00:52:11;-8.67;74.23
65598;SHT31;52267;51.984;20.956;2024-01-10T00:54:40;-8.62;74.19
65598;SHT31;52267;51.984;20.956;2024-01-10T00:57:08;-8.58;74.10
65598;SHT31;52267;51.984;20.956;2024-01-10T00:59:36;-8.51;74.07
65598;SHT31;52267;51.984;20.956;2024-01-10T01:02:03;-8.46;74.01
65598;SHT31;52267;51.984;20.956;2024-01-10T01:04:31;-8.41;74.00
65598;SHT31;52267;51.984;20.956;2024-01-10T01:07:00;-8.37;74.00
65598;SHT31;52267;51.984;20.956;2024-01-10T01:09:28;-8.36;74.00
65598;SHT31;52267;51.984;20.956;2024-01-10T01:11:56;-8.34;73.96
65598;SHT31;52267;51.984;20.956;2024-01-10T01:14:23;-8.29;73.86
65598;SHT31;52267;51.984;20.956;2024-01-10T01:16:51;-8.25;73.81
65598;SHT31;52267;51.984;20.956;2024-01-10T01:19:19;-8.22;73.80
65598;SHT31;52267;51.984;20.956;2024-01-10T01:21:47;-8.20;73.74
65598;SHT31;52267;51.984;20.956;2024-01-10T01:24:15;-8.19;73.67
65598;SHT31;52267;51.984;20.956;2024-01-10T01:26:42;-8.18;73.59
65598;SHT31;52267;51.984;20.956;2024-01-10T01:29:10;-8.14;73.53
65598;SHT31;52267;51.984;20.956;2024-01-10T01:31:37;-8.16;73.50
65598;SHT31;52267;51.984;20.956;2024-01-10T01:34:04;-8.22;73.56
65598;SHT31;52267;51.984;20.956;2024-01-10T01:36:32;-8.26;73.71
65598;SHT31;52267;51.984;20.956;2024-01-10T01:39:00;-8.25;73.80
65598;SHT31;52267;51.984;20.956;2024-01-10T01:41:28;-8.25;73.80
65598;SHT31;52267;51.984;20.956;2024-01-10T01:43:56;-8.27;73.72
65598;SHT31;52267;51.984;20.956;2024-01-10T01:46:24;-8.35;73.73
65598;SHT31;52267;51.984;20.956;2024-01-10T01:48:52;-8.43;73.91
65598;SHT31;52267;51.984;20.956;2024-01-10T01:51:20;-8.46;74.04
65598;SHT31;52267;51.984;20.956;2024-01-10T01:53:49;-8.50;74.08
65598;SHT31;52267;51.984;20.956;2024-01-10T01:56:18;-8.50;74.10
65598;SHT31;52267;51.984;20.956;2024-01-10T01:58:46;-8.48;73.97
65598;SHT31;52267;51.984;20.956;2024-01-10T02:01:17;-8.46;73.79
65598;SHT31;52267;51.984;20.956;2024-01-10T02:03:48;-8.46;73.62
65598;SHT31;52267;51.984;20.956;2024-01-10T02:06:16;-8.45;73.51
65598;SHT31;52267;51.984;20.956;2024-01-10T02:08:43;-8.47;73.50
65598;SHT31;52267;51.984;20.956;2024-01-10T02:11:10;-8.54;73.50
65598;SHT31;52267;51.984;20.956;2024-01-10T02:13:37;-8.55;73.60
65598;SHT31;52267;51.984;20.956;2024-01-10T02:16:04;-8.55;73.52
65598;SHT31;52267;51.984;20.956;2024-01-10T02:18:32;-8.54;73.42
65598;SHT31;52267;51.984;20.956;2024-01-10T02:21:01;-8.53;73.34
65598;SHT31;52267;51.984;20.956;2024-01-10T02:23:30;-8.52;73.20
65598;SHT31;52267;51.984;20.956;2024-01-10T02:25:59;-8.49;73.11
65598;SHT31;52267;51.984;20.956;2024-01-10T02:28:28;-8.51;73.04
65598;SHT31;52267;51.984;20.956;2024-01-10T02:30:58;-8.55;73.12
65598;SHT31;52267;51.984;20.956;2024-01-10T02:33:27;-8.57;73.19
65598;SHT31;52267;51.984;20.956;2024-01-10T02:35:54;-8.57;73.07
65598;SHT31;52267;51.984;20.956;2024-01-10T02:38:21;-8.56;72.96
65598;SHT31;52267;51.984;20.956;2024-01-10T02:40:49;-8.69;73.04
65598;SHT31;52267;51.984;20.956;2024-01-10T02:43:17;-8.73;73.24
65598;SHT31;52267;51.984;20.956;2024-01-10T02:45:44;-8.80;73.29
65598;SHT31;52267;51.984;20.956;2024-01-10T02:48:11;-8.86;73.44
65598;SHT31;52267;51.984;20.956;2024-01-10T02:50:38;-8.82;73.60
65598;SHT31;52267;51.984;20.956;2024-01-10T02:53:05;-8.86;73.62
65598;SHT31;52267;51.984;20.956;2024-01-10T02:55:32;-8.95;73.72
65598;SHT31;52267;51.984;20.956;2024-01-10T02:57:59;-9.03;73.86
65598;SHT31;52267;51.984;20.956;2024-01-10T03:00:26;-9.13;73.91
65598;SHT31;52267;51.984;20.956;2024-01-10T03:02:53;-9.19;74.07
65598;SHT31;52267;51.984;20.956;2024-01-10T03:05:20;-9.17;74.03
65598;SHT31;52267;51.984;20.956;2024-01-10T03:07:47;-9.20;73.95
65598;SHT31;52267;51.984;20.956;2024-01-10T03:10:14;-9.24;73.92
65598;SHT31;52267;51.984;20.956;2024-01-10T03:12:41;-9.25;73.98
65598;SHT31;52267;51.984;20.956;2024-01-10T03:15:08;-9.25;73.90
65598;SHT31;52267;51.984;20.956;2024-01-10T03:17:36;-9.23;73.85
65598;SHT31;52267;51.984;20.956;2024-01-10T03:20:03;-9.17;73.76
65598;SHT31;52267;51.984;20.956;2024-01-10T03:22:31;-9.11;73.64
65598;SHT31;52267;51.984;20.956;2024-01-10T03:24:58;-9.06;73.51
65598;SHT31;52267;51.984;20.956;2024-01-10T03:27:25;-9.01;73.42
65598;SHT31;52267;51.984;20.956;2024-01-10T03:29:52;-8.95;73.30
65598;SHT31;52267;51.984;20.956;2024-01-10T03:32:22;-8.94;73.22
65598;SHT31;52267;51.984;20.956;2024-01-10T03:34:49;-8.88;73.13
65598;SHT31;52267;51.984;20.956;2024-01-10T03:37:17;-8.84;72.98
65598;SHT31;52267;51.984;20.956;2024-01-10T03:39:45;-8.77;73.00
65598;SHT31;52267;51.984;20.956;2024-01-10T03:42:12;-8.72;72.88
65598;SHT31;52267;51.984;20.956;2024-01-10T03:44:39;-8.67;72.71
65598;SHT31;52267;51.984;20.956;2024-01-10T03:47:06;-8.59;72.74
65598;SHT31;52267;51.984;20.956;2024-01-10T03:49:33;-8.53;72.74
65598;SHT31;52267;51.984;20.956;2024-01-10T03:52:00;-8.48;72.52
65598;SHT31;52267;51.984;20.956;2024-01-10T03:54:27;-8.44;72.47
65598;SHT31;52267;51.984;20.956;2024-01-10T03:56:54;-8.38;72.36
65598;SHT31;52267;51.984;20.956;2024-01-10T03:59:21;-8.31;72.30
65598;SHT31;52267;51.984;20.956;2024-01-10T04:01:48;-8.24;72.32
65598;SHT31;52267;51.984;20.956;2024-01-10T04:04:15;-8.19;72.30
65598;SHT31;52267;51.984;20.956;2024-01-10T04:06:42;-8.15;72.15
65598;SHT31;52267;51.984;20.956;2024-01-10T04:09:09;-8.12;72.11
65598;SHT31;52267;51.984;20.956;2024-01-10T04:11:37;-8.06;72.13
65598;SHT31;52267;51.984;20.956;2024-01-10T04:14:04;-8.02;72.10
65598;SHT31;52267;51.984;20.956;2024-01-10T04:16:32;-8.00;72.10
65598;SHT31;52267;51.984;20.956;2024-01-10T04:19:00;-7.99;72.18
65598;SHT31;52267;51.984;20.956;2024-01-10T04:21:27;-7.98;72.10
65598;SHT31;52267;51.984;20.956;2024-01-10T04:23:54;-7.95;72.04
65598;SHT31;52267;51.984;20.956;2024-01-10T04:26:21;-7.94;72.01
65598;SHT31;52267;51.984;20.956;2024-01-10T04:28:48;-7.95;71.99
65598;SHT31;52267;51.984;20.956;2024-01-10T04:31:15;-7.94;71.90
65598;SHT31;52267;51.984;20.956;2024-01-10T04:33:42;-7.96;71.91
65598;SHT31;52267;51.984;20.956;2024-01-10T04:36:09;-7.99;71.90
65598;SHT31;52267;51.984;20.956;2024-01-10T04:38:36;-8.02;71.84
65598;SHT31;52267;51.984;20.956;2024-01-10T04:41:03;-8.04;71.81
65598;SHT31;52267;51.984;20.956;2024-01-10T04:43:30;-8.04;71.71
65598;SHT31;52267;51.984;20.956;2024-01-10T04:45:57;-8.03;71.70
65598;SHT31;52267;51.984;20.956;2024-01-10T04:48:24;-8.07;71.78
65598;SHT31;52267;51.984;20.956;2024-01-10T04:50:51;-8.15;71.96
65598;SHT31;52267;51.984;20.956;2024-01-10T04:53:18;-8.15;72.09
65598;SHT31;52267;51.984;20.956;2024-01-10T04:55:45;-8.15;72.13
65598;SHT31;52267;51.984;20.956;2024-01-10T04:58:12;-8.12;72.13
65598;SHT31;52267;51.984;20.956;2024-01-10T05:00:39;-8.11;72.10
65598;SHT31;52267;51.984;20.956;2024-01-10T05:03:06;-8.10;72.00
65598;SHT31;52267;51.984;20.956;2024-01-10T05:05:33;-8.10;71.96
65598;SHT31;52267;51.984;20.956;2024-01-10T05:08:00;-8.09;71.90
65598;SHT31;52267;51.984;20.956;2024-01-10T05:10:27;-8.09;71.90
65598;SHT31;52267;51.984;20.956;2024-01-10T05:12:55;-8.06;71.83
65598;SHT31;52267;51.984;20.956;2024-01-10T05:15:22;-8.04;71.80
65598;SHT31;52267;51.984;20.956;2024-01-10T05:17:49;-8.02;71.72
65598;SHT31;52267;51.984;20.956;2024-01-10T05:20:16;-8.00;71.76
65598;SHT31;52267;51.984;20.956;2024-01-10T05:22:43;-7.96;71.68
65598;SHT31;52267;51.984;20.956;2024-01-10T05:25:10;-7.94;71.56
65598;SHT31;52267;51.984;20.956;2024-01-10T05:27:38;-7.90;71.59
65598;SHT31;52267;51.984;20.956;2024-01-10T05:30:05;-7.86;71.60
65598;SHT31;52267;51.984;20.956;2024-01-10T05:32:33;-7.82;71.62
65598;SHT31;52267;51.984;20.956;2024-01-10T05:35:00;-7.78;71.57
65598;SHT31;52267;51.984;20.956;2024-01-10T05:37:27;-7.74;71.56
65598;SHT31;52267;51.984;20.956;2024-01-10T05:39:54;-7.72;71.56
65598;SHT31;52267;51.984;20.956;2024-01-10T05:42:21;-7.67;71.51
65598;SHT31;52267;51.984;20.956;2024-01-10T05:44:48;-7.68;71.56
65598;SHT31;52267;51.984;20.956;2024-01-10T05:47:15;-7.66;71.55
65598;SHT31;52267;51.984;20.956;2024-01-10T05:49:42;-7.67;71.59
65598;SHT31;52267;51.984;20.956;2024-01-10T05:52:09;-7.68;71.60
65598;SHT31;52267;51.984;20.956;2024-01-10T05:54:36;-7.70;71.60
65598;SHT31;52267;51.984;20.956;2024-01-10T05:57:03;-7.71;71.61
65598;SHT31;52267;51.984;20.956;2024-01-10T05:59:30;-7.73;71.65
65598;SHT31;52267;51.984;20.956;2024-01-10T06:01:57;-7.77;71.55
65598;SHT31;52267;51.984;20.956;2024-01-10T06:04:25;-7.83;71.59
65598;SHT31;52267;51.984;20.956;2024-01-10T06:06:54;-7.87;71.67
65598;SHT31;52267;51.984;20.956;2024-01-10T06:09:21;-7.88;71.69
65598;SHT31;52267;51.984;20.956;2024-01-10T06:11:48;-7.91;71.70
65598;SHT31;52267;51.984;20.956;2024-01-10T06:14:15;-7.94;71.74
65598;SHT31;52267;51.984;20.956;2024-01-10T06:16:43;-7.96;71.78
65598;SHT31;52267;51.984;20.956;2024-01-10T06:19:11;-7.94;71.81
65598;SHT31;52267;51.984;20.956;2024-01-10T06:21:38;-7.92;71.73
65598;SHT31;52267;51.984;20.956;2024-01-10T06:24:05;-7.90;71.68
65598;SHT31;52267;51.984;20.956;2024-01-10T06:26:32;-7.89;71.70
65598;SHT31;52267;51.984;20.956;2024-01-10T06:28:59;-7.88;71.65
65598;SHT31;52267;51.984;20.956;2024-01-10T06:31:26;-7.87;71.60
65598;SHT31;52267;51.984;20.956;2024-01-10T06:33:53;-7.85;71.56
65598;SHT31;52267;51.984;20.956;2024-01-10T06:36:22;-7.88;71.42
65598;SHT31;52267;51.984;20.956;2024-01-10T06:38:49;-7.86;71.48
65598;SHT31;52267;51.984;20.956;2024-01-10T06:41:16;-7.83;71.47
65598;SHT31;52267;51.984;20.956;2024-01-10T06:43:43;-7.81;71.41
65598;SHT31;52267;51.984;20.956;2024-01-10T06:46:10;-7.81;71.30
65598;SHT31;52267;51.984;20.956;2024-01-10T06:48:38;-7.82;71.32
65598;SHT31;52267;51.984;20.956;2024-01-10T06:51:09;-7.83;71.31
65598;SHT31;52267;51.984;20.956;2024-01-10T06:53:38;-7.84;71.32
65598;SHT31;52267;51.984;20.956;2024-01-10T06:56:06;-7.81;71.38
65598;SHT31;52267;51.984;20.956;2024-01-10T06:58:35;-7.72;71.30
65598;SHT31;52267;51.984;20.956;2024-01-10T07:01:03;-7.66;71.22
65598;SHT31;52267;51.984;20.956;2024-01-10T07:03:34;-7.67;71.20
65598;SHT31;52267;51.984;20.956;2024-01-10T07:06:01;-7.64;71.21
65598;SHT31;52267;51.984;20.956;2024-01-10T07:08:28;-7.64;70.92
65598;SHT31;52267;51.984;20.956;2024-01-10T07:10:57;-7.62;70.90
65598;SHT31;52267;51.984;20.956;2024-01-10T07:13:24;-7.59;71.02
65598;SHT31;52267;51.984;20.956;2024-01-10T07:15:51;-7.58;71.08
65598;SHT31;52267;51.984;20.956;2024-01-10T07:18:19;-7.56;71.03
65598;SHT31;52267;51.984;20.956;2024-01-10T07:20:46;-7.55;71.01
65598;SHT31;52267;51.984;20.956;2024-01-10T07:23:13;-7.51;71.07
65598;SHT31;52267;51.984;20.956;2024-01-10T07:25:40;-7.44;71.04
65598;SHT31;52267;51.984;20.956;2024-01-10T07:28:06;-7.38;70.97
65598;SHT31;52267;51.984;20.956;2024-01-10T07:30:34;-7.35;70.87
65598;SHT31;52267;51.984;20.956;2024-01-10T07:33:01;-7.26;70.91
65598;SHT31;52267;51.984;20.956;2024-01-10T07:35:28;-7.13;70.75
65598;SHT31;52267;51.984;20.956;2024-01-10T07:37:56;-7.07;70.69
65598;SHT31;52267;51.984;20.956;2024-01-10T07:40:23;-7.02;70.68
65598;SHT31;52267;51.984;20.956;2024-01-10T07:42:50;-6.95;70.58
65598;SHT31;52267;51.984;20.956;2024-01-10T07:45:17;-6.89;70.67
65598;SHT31;52267;51.984;20.956;2024-01-10T07:47:45;-6.82;70.47
65598;SHT31;52267;51.984;20.956;2024-01-10T07:50:13;-6.76;70.40
65598;SHT31;52267;51.984;20.956;2024-01-10T07:52:40;-6.67;70.33
65598;SHT31;52267;51.984;20.956;2024-01-10T07:55:09;-6.61;70.21
65598;SHT31;52267;51.984;20.956;2024-01-10T07:57:36;-6.45;69.81
65598;SHT31;52267;51.984;20.956;2024-01-10T08:00:04;-6.31;69.42
65598;SHT31;52267;51.984;20.956;2024-01-10T08:02:38;-6.26;69.43
65598;SHT31;52267;51.984;20.956;2024-01-10T08:05:06;-6.23;69.31
65598;SHT31;52267;51.984;20.956;2024-01-10T08:07:39;-6.21;69.26
65598;SHT31;52267;51.984;20.956;2024-01-10T08:10:06;-6.18;69.37
65598;SHT31;52267;51.984;20.956;2024-01-10T08:12:36;-6.09;69.66
65598;SHT31;52267;51.984;20.956;2024-01-10T08:15:05;-6.03;69.60
65598;SHT31;52267;51.984;20.956;2024-01-10T08:17:33;-5.95;69.67
65598;SHT31;52267;51.984;20.956;2024-01-10T08:20:00;-5.89;69.65
65598;SHT31;52267;51.984;20.956;2024-01-10T08:22:30;-5.84;69.54
65598;SHT31;52267;51.984;20.956;2024-01-10T08:24:57;-5.80;69.28
65598;SHT31;52267;51.984;20.956;2024-01-10T08:27:24;-5.76;68.97
65598;SHT31;52267;51.984;20.956;2024-01-10T08:29:52;-5.73;68.77
65598;SHT31;52267;51.984;20.956;2024-01-10T08:32:21;-5.68;68.80
65598;SHT31;52267;51.984;20.956;2024-01-10T08:34:48;-5.61;68.72
65598;SHT31;52267;51.984;20.956;2024-01-10T08:37:15;-5.52;68.60
65598;SHT31;52267;51.984;20.956;2024-01-10T08:39:45;-5.46;68.50
65598;SHT31;52267;51.984;20.956;2024-01-10T08:42:12;-5.40;68.62
65598;SHT31;52267;51.984;20.956;2024-01-10T08:44:39;-5.35;68.64
65598;SHT31;52267;51.984;20.956;2024-01-10T08:47:06;-5.26;67.95
65598;SHT31;52267;51.984;20.956;2024-01-10T08:49:34;-5.12;67.23
65598;SHT31;52267;51.984;20.956;2024-01-10T08:52:01;-5.04;67.41
65598;SHT31;52267;51.984;20.956;2024-01-10T08:54:28;-4.99;67.02
65598;SHT31;52267;51.984;20.956;2024-01-10T08:56:55;-5.01;65.56
65598;SHT31;52267;51.984;20.956;2024-01-10T08:59:23;-4.98;65.62
65598;SHT31;52267;51.984;20.956;2024-01-10T09:01:51;-4.92;65.90
65598;SHT31;52267;51.984;20.956;2024-01-10T09:04:18;-4.83;65.47
65598;SHT31;52267;51.984;20.956;2024-01-10T09:06:46;-4.78;65.51
65598;SHT31;52267;51.984;20.956;2024-01-10T09:09:13;-4.72;65.63
65598;SHT31;52267;51.984;20.956;2024-01-10T09:11:40;-4.67;65.51
65598;SHT31;52267;51.984;20.956;2024-01-10T09:14:08;-4.54;65.75
65598;SHT31;52267;51.984;20.956;2024-01-10T09:16:35;-4.35;65.89
65598;SHT31;52267;51.984;20.956;2024-01-10T09:19:02;-4.10;65.57
65598;SHT31;52267;51.984;20.956;2024-01-10T09:21:29;-3.86;65.08
65598;SHT31;52267;51.984;20.956;2024-01-10T09:23:56;-3.69;64.52
65598;SHT31;52267;51.984;20.956;2024-01-10T09:26:23;-3.41;64.59
65598;SHT31;52267;51.984;20.956;2024-01-10T09:28:50;-3.14;63.84
65598;SHT31;52267;51.984;20.956;2024-01-10T09:31:17;-2.94;63.72
65598;SHT31;52267;51.984;20.956;2024-01-10T09:33:44;-2.76;62.40
65598;SHT31;52267;51.984;20.956;2024-01-10T09:36:12;-2.52;61.49
65598;SHT31;52267;51.984;20.956;2024-01-10T09:38:40;-2.25;61.01
65598;SHT31;52267;51.984;20.956;2024-01-10T09:41:07;-2.12;59.66
65598;SHT31;52267;51.984;20.956;2024-01-10T09:43:35;-1.90;58.35
65598;SHT31;52267;51.984;20.956;2024-01-10T09:46:02;-1.60;58.94
65598;SHT31;52267;51.984;20.956;2024-01-10T09:48:31;-1.33;58.71
65598;SHT31;52267;51.984;20.956;2024-01-10T09:50:59;-1.13;57.83
65598;SHT31;52267;51.984;20.956;2024-01-10T09:53:26;-1.19;57.36
65598;SHT31;52267;51.984;20.956;2024-01-10T09:55:54;-1.30;58.12
65598;SHT31;52267;51.984;20.956;2024-01-10T09:58:23;-1.27;58.48
65598;SHT31;52267;51.984;20.956;2024-01-10T10:00:53;-1.29;58.33
65598;SHT31;52267;51.984;20.956;2024-01-10T10:03:21;-1.34;57.99
65598;SHT31;52267;51.984;20.956;2024-01-10T10:05:49;-1.40;58.53
65598;SHT31;52267;51.984;20.956;2024-01-10T10:08:16;-1.37;57.69
65598;SHT31;52267;51.984;20.956;2024-01-10T10:10:48;-1.25;57.74
65598;SHT31;52267;51.984;20.956;2024-01-10T10:13:26;-1.05;57.34
65598;SHT31;52267;51.984;20.956;2024-01-10T10:15:59;-0.99;56.96
65598;SHT31;52267;51.984;20.956;2024-01-10T10:18:30;-1.02;56.92
65598;SHT31;52267;51.984;20.956;2024-01-10T10:23:42;-1.39;57.41
65598;SHT31;52267;51.984;20.956;2024-01-10T10:26:23;-1.44;57.72
65598;SHT31;52267;51.984;20.956;2024-01-10T10:28:53;-1.26;58.31
65598;SHT31;52267;51.984;20.956;2024-01-10T10:31:20;-1.00;57.84
65598;SHT31;52267;51.984;20.956;2024-01-10T10:33:48;-0.60;56.40
65598;SHT31;52267;51.984;20.956;2024-01-10T10:36:19;-0.34;54.56
65598;SHT31;52267;51.984;20.956;2024-01-10T10:38:49;-0.10;54.99
65598;SHT31;52267;51.984;20.956;2024-01-10T10:41:16;0.08;54.23
65598;SHT31;52267;51.984;20.956;2024-01-10T10:43:46;0.22;54.09
65598;SHT31;52267;51.984;20.956;2024-01-10T10:46:16;0.32;53.09
65598;SHT31;52267;51.984;20.956;2024-01-10T10:48:43;0.38;53.72
65598;SHT31;52267;51.984;20.956;2024-01-10T10:54:03;0.30;53.85
65598;SHT31;52267;51.984;20.956;2024-01-10T10:56:32;0.31;55.16
65598;SHT31;52267;51.984;20.956;2024-01-10T10:59:03;0.01;53.29
65598;SHT31;52267;51.984;20.956;2024-01-10T11:01:31;-0.31;53.52
65598;SHT31;52267;51.984;20.956;2024-01-10T11:04:00;-0.55;53.94
65598;SHT31;52267;51.984;20.956;2024-01-10T11:06:27;-0.58;55.82
65598;SHT31;52267;51.984;20.956;2024-01-10T11:08:59;-0.61;53.21
65598;SHT31;52267;51.984;20.956;2024-01-10T11:14:56;-0.83;55.93
65598;SHT31;52267;51.984;20.956;2024-01-10T11:17:43;-0.89;55.91
65598;SHT31;52267;51.984;20.956;2024-01-10T11:20:39;-0.94;56.04
65598;SHT31;52267;51.984;20.956;2024-01-10T11:23:53;-1.01;56.95
65598;SHT31;52267;51.984;20.956;2024-01-10T11:26:22;-1.06;55.65
65598;SHT31;52267;51.984;20.956;2024-01-10T11:28:50;-1.02;55.33
65598;SHT31;52267;51.984;20.956;2024-01-10T11:31:26;-1.00;54.48
65598;SHT31;52267;51.984;20.956;2024-01-10T11:33:56;-1.08;53.74
65598;SHT31;52267;51.984;20.956;2024-01-10T11:36:24;-1.08;54.08
65598;SHT31;52267;51.984;20.956;2024-01-10T11:41:32;-1.05;53.30
65598;SHT31;52267;51.984;20.956;2024-01-10T11:46:58;-0.85;53.44
65598;SHT31;52267;51.984;20.956;2024-01-10T11:49:25;-0.76;51.94
65598;SHT31;52267;51.984;20.956;2024-01-10T11:51:54;-0.72;51.00
65598;SHT31;52267;51.984;20.956;2024-01-10T11:57:13;-0.74;51.84
65598;SHT31;52267;51.984;20.956;2024-01-10T12:00:02;-0.75;51.32
65598;SHT31;52267;51.984;20.956;2024-01-10T12:02:32;-0.74;52.50
65598;SHT31;52267;51.984;20.956;2024-01-10T12:04:59;-0.66;53.30
65598;SHT31;52267;51.984;20.956;2024-01-10T12:07:26;-0.57;53.81
65598;SHT31;52267;51.984;20.956;2024-01-10T12:09:53;-0.53;52.14
65598;SHT31;52267;51.984;20.956;2024-01-10T12:12:21;-0.40;53.44
65598;SHT31;52267;51.984;20.956;2024-01-10T12:14:48;-0.28;52.54
65598;SHT31;52267;51.984;20.956;2024-01-10T12:17:18;-0.15;53.22
65598;SHT31;52267;51.984;20.956;2024-01-10T12:19:45;-0.04;52.19
65598;SHT31;52267;51.984;20.956;2024-01-10T12:22:15;-0.01;52.68
65598;SHT31;52267;51.984;20.956;2024-01-10T12:24:43;-0.06;52.13
65598;SHT31;52267;51.984;20.956;2024-01-10T12:27:17;0.02;53.71
65598;SHT31;52267;51.984;20.956;2024-01-10T12:29:49;0.04;52.86
65598;SHT31;52267;51.984;20.956;2024-01-10T12:32:18;-0.14;52.14
65598;SHT31;52267;51.984;20.956;2024-01-10T12:34:47;-0.40;52.19
65598;SHT31;52267;51.984;20.956;2024-01-10T12:37:14;-0.60;52.72
65598;SHT31;52267;51.984;20.956;2024-01-10T12:39:41;-0.73;53.73
65598;SHT31;52267;51.984;20.956;2024-01-10T12:42:08;-0.80;54.97
65598;SHT31;52267;51.984;20.956;2024-01-10T12:44:36;-0.86;54.07
65598;SHT31;52267;51.984;20.956;2024-01-10T12:47:03;-0.91;53.67
65598;SHT31;52267;51.984;20.956;2024-01-10T12:49:30;-0.97;54.19
65598;SHT31;52267;51.984;20.956;2024-01-10T12:51:58;-1.03;53.28
65598;SHT31;52267;51.984;20.956;2024-01-10T12:54:25;-1.05;54.49
65598;SHT31;52267;51.984;20.956;2024-01-10T12:56:52;-1.06;54.76
65598;SHT31;52267;51.984;20.956;2024-01-10T12:59:19;-1.14;53.50
65598;SHT31;52267;51.984;20.956;2024-01-10T13:01:46;-1.15;54.70
65598;SHT31;52267;51.984;20.956;2024-01-10T13:04:13;-1.19;54.25
65598;SHT31;52267;51.984;20.956;2024-01-10T13:06:40;-1.23;53.88
65598;SHT31;52267;51.984;20.956;2024-01-10T13:09:07;-1.24;55.62
65598;SHT31;52267;51.984;20.956;2024-01-10T13:11:35;-1.24;55.24
65598;SHT31;52267;51.984;20.956;2024-01-10T13:14:02;-1.22;55.79
65598;SHT31;52267;51.984;20.956;2024-01-10T13:16:29;-1.22;55.97
65598;SHT31;52267;51.984;20.956;2024-01-10T13:18:57;-1.21;55.77
65598;SHT31;52267;51.984;20.956;2024-01-10T13:21:25;-1.21;55.84
65598;SHT31;52267;51.984;20.956;2024-01-10T13:23:53;-1.19;55.83
65598;SHT31;52267;51.984;20.956;2024-01-10T13:26:20;-1.18;55.83
65598;SHT31;52267;51.984;20.956;2024-01-10T13:28:47;-1.15;56.02
65598;SHT31;52267;51.984;20.956;2024-01-10T13:31:15;-1.17;55.84
65598;SHT31;52267;51.984;20.956;2024-01-10T13:33:42;-1.19;55.00
65598;SHT31;52267;51.984;20.956;2024-01-10T13:36:09;-1.17;55.89
65598;SHT31;52267;51.984;20.956;2024-01-10T13:38:38;-1.18;55.77
65598;SHT31;52267;51.984;20.956;2024-01-10T13:41:05;-1.22;55.77
65598;SHT31;52267;51.984;20.956;2024-01-10T13:43:33;-1.27;55.59
65598;SHT31;52267;51.984;20.956;2024-01-10T13:46:00;-1.30;55.92
65598;SHT31;52267;51.984;20.956;2024-01-10T13:48:27;-1.29;56.33
65598;SHT31;52267;51.984;20.956;2024-01-10T13:50:55;-1.31;55.97
65598;SHT31;52267;51.984;20.956;2024-01-10T13:53:22;-1.37;56.32
65598;SHT31;52267;51.984;20.956;2024-01-10T13:55:49;-1.38;56.62
65598;SHT31;52267;51.984;20.956;2024-01-10T13:58:16;-1.43;56.13
65598;SHT31;52267;51.984;20.956;2024-01-10T14:00:45;-1.47;56.58
65598;SHT31;52267;51.984;20.956;2024-01-10T14:03:13;-1.47;56.76
65598;SHT31;52267;51.984;20.956;2024-01-10T14:05:40;-1.47;56.71
65598;SHT31;52267;51.984;20.956;2024-01-10T14:08:07;-1.50;56.82
65598;SHT31;52267;51.984;20.956;2024-01-10T14:10:37;-1.55;56.62
65598;SHT31;52267;51.984;20.956;2024-01-10T14:13:05;-1.58;56.91
65598;SHT31;52267;51.984;20.956;2024-01-10T14:15:33;-1.59;57.00
65598;SHT31;52267;51.984;20.956;2024-01-10T14:18:00;-1.60;56.87
65598;SHT31;52267;51.984;20.956;2024-01-10T14:20:27;-1.64;57.00
65598;SHT31;52267;51.984;20.956;2024-01-10T14:22:54;-1.70;56.97
65598;SHT31;52267;51.984;20.956;2024-01-10T14:25:21;-1.81;56.93
65598;SHT31;52267;51.984;20.956;2024-01-10T14:27:48;-1.88;57.22
65598;SHT31;52267;51.984;20.956;2024-01-10T14:30:15;-1.89;57.27
65598;SHT31;52267;51.984;20.956;2024-01-10T14:32:43;-1.90;57.40
65598;SHT31;52267;51.984;20.956;2024-01-10T14:35:13;-1.96;57.26
65598;SHT31;52267;51.984;20.956;2024-01-10T14:37:40;-2.04;57.38
65598;SHT31;52267;51.984;20.956;2024-01-10T14:40:08;-2.13;57.36
65598;SHT31;52267;51.984;20.956;2024-01-10T14:42:36;-2.18;57.67
65598;SHT31;52267;51.984;20.956;2024-01-10T14:45:04;-2.19;57.78
65598;SHT31;52267;51.984;20.956;2024-01-10T14:47:31;-2.22;57.70
65598;SHT31;52267;51.984;20.956;2024-01-10T14:49:58;-2.31;57.91
65598;SHT31;52267;51.984;20.956;2024-01-10T14:52:25;-2.41;58.15
65598;SHT31;52267;51.984;20.956;2024-01-10T14:54:53;-2.50;58.40
65598;SHT31;52267;51.984;20.956;2024-01-10T14:57:20;-2.50;58.52
65598;SHT31;52267;51.984;20.956;2024-01-10T14:59:48;-2.58;58.75
65598;SHT31;52267;51.984;20.956;2024-01-10T15:02:15;-2.61;58.97
65598;SHT31;52267;51.984;20.956;2024-01-10T15:04:45;-2.58;58.92
65598;SHT31;52267;51.984;20.956;2024-01-10T15:07:12;-2.67;58.76
65598;SHT31;52267;51.984;20.956;2024-01-10T15:09:41;-2.74;58.97
65598;SHT31;52267;51.984;20.956;2024-01-10T15:12:09;-2.77;59.04
65598;SHT31;52267;51.984;20.956;2024-01-10T15:14:37;-2.82;59.27
65598;SHT31;52267;51.984;20.956;2024-01-10T15:17:07;-2.88;59.48
65598;SHT31;52267;51.984;20.956;2024-01-10T15:19:34;-2.98;59.90
65598;SHT31;52267;51.984;20.956;2024-01-10T15:22:02;-3.08;60.04
65598;SHT31;52267;51.984;20.956;2024-01-10T15:24:29;-3.24;60.39
65598;SHT31;52267;51.984;20.956;2024-01-10T15:26:57;-3.32;60.72
65598;SHT31;52267;51.984;20.956;2024-01-10T15:29:28;-3.44;60.90
65598;SHT31;52267;51.984;20.956;2024-01-10T15:31:55;-3.54;61.14
65598;SHT31;52267;51.984;20.956;2024-01-10T15:34:23;-3.56;61.44
65598;SHT31;52267;51.984;20.956;2024-01-10T15:36:53;-3.60;61.50
65598;SHT31;52267;51.984;20.956;2024-01-10T15:39:20;-3.65;61.38